Marvel, Alabama
Current Conditions -  °F | °C
As of 3:53 AM on Thursday 23 Oct 2014 (Local Time) from KEET Reporting Station
Clear Clear  
Wind Chill: 51°   Ceiling: Unl
Heat Index: 51°   Visibility: 10mi
Dew Point: 42°   Wind: 5mph
Humidity: 71%   Direction: 50°NE
Pressure: 30.1"   Gusts: NA
Location:  33.1388°N, 86.8879°W
Report Text: KEET 230853Z AUTO 05004KT 10SM CLR 11/06 A3010 RMK AO2 SLP191 T01060056 56008
Loading
Personal Weather Stations






























Interactive Weather Map
Tropical Storm Tracking
New forecast layout! Learn more

10-Day Weather Forecast

Advertisements
Track Severe Weather on mobile